sensor_id;sensor_type;location;lat;lon;timestamp;temperature;humidity
6260;DHT22;3163;51.516;4.000;2023-03-23T00:01:11;12.30;99.90
6260;DHT22;3163;51.516;4.000;2023-03-23T00:03:41;12.30;99.90
6260;DHT22;3163;51.516;4.000;2023-03-23T00:06:07;12.30;99.90
6260;DHT22;3163;51.516;4.000;2023-03-23T00:08:35;12.30;99.90
6260;DHT22;3163;51.516;4.000;2023-03-23T00:11:11;12.30;99.90
6260;DHT22;3163;51.516;4.000;2023-03-23T00:13:41;12.30;99.90
6260;DHT22;3163;51.516;4.000;2023-03-23T00:16:07;12.30;99.90
6260;DHT22;3163;51.516;4.000;2023-03-23T00:18:51;12.30;99.90
6260;DHT22;3163;51.516;4.000;2023-03-23T00:21:18;12.30;99.90
6260;DHT22;3163;51.516;4.000;2023-03-23T00:23:44;12.30;99.90
6260;DHT22;3163;51.516;4.000;2023-03-23T00:26:11;12.30;99.90
6260;DHT22;3163;51.516;4.000;2023-03-23T00:28:37;12.30;99.90
6260;DHT22;3163;51.516;4.000;2023-03-23T00:31:06;12.30;99.90
6260;DHT22;3163;51.516;4.000;2023-03-23T00:33:34;12.30;99.90
6260;DHT22;3163;51.516;4.000;2023-03-23T00:36:04;12.40;99.90
6260;DHT22;3163;51.516;4.000;2023-03-23T00:38:31;12.40;99.90
6260;DHT22;3163;51.516;4.000;2023-03-23T00:40:57;12.30;99.90
6260;DHT22;3163;51.516;4.000;2023-03-23T00:43:24;12.30;99.90
6260;DHT22;3163;51.516;4.000;2023-03-23T00:45:55;12.30;99.90
6260;DHT22;3163;51.516;4.000;2023-03-23T00:48:21;12.30;99.90
6260;DHT22;3163;51.516;4.000;2023-03-23T00:50:48;12.30;99.90
6260;DHT22;3163;51.516;4.000;2023-03-23T00:53:15;12.20;99.90
6260;DHT22;3163;51.516;4.000;2023-03-23T00:55:42;12.20;99.90
6260;DHT22;3163;51.516;4.000;2023-03-23T00:58:09;12.30;99.90
6260;DHT22;3163;51.516;4.000;2023-03-23T01:00:35;12.20;99.90
6260;DHT22;3163;51.516;4.000;2023-03-23T01:03:01;12.30;99.90
6260;DHT22;3163;51.516;4.000;2023-03-23T01:05:27;12.20;99.90
6260;DHT22;3163;51.516;4.000;2023-03-23T01:07:58;12.30;99.90
6260;DHT22;3163;51.516;4.000;2023-03-23T01:10:24;12.30;99.90
6260;DHT22;3163;51.516;4.000;2023-03-23T01:12:52;12.30;99.90
6260;DHT22;3163;51.516;4.000;2023-03-23T01:15:18;12.30;99.90
6260;DHT22;3163;51.516;4.000;2023-03-23T01:17:44;12.30;99.90
6260;DHT22;3163;51.516;4.000;2023-03-23T01:20:11;12.40;99.90
6260;DHT22;3163;51.516;4.000;2023-03-23T01:22:38;12.40;99.90
6260;DHT22;3163;51.516;4.000;2023-03-23T01:25:05;12.30;99.90
6260;DHT22;3163;51.516;4.000;2023-03-23T01:27:31;12.30;99.90
6260;DHT22;3163;51.516;4.000;2023-03-23T01:29:57;12.30;99.90
6260;DHT22;3163;51.516;4.000;2023-03-23T01:32:22;12.30;99.90
6260;DHT22;3163;51.516;4.000;2023-03-23T01:34:48;12.30;99.90
6260;DHT22;3163;51.516;4.000;2023-03-23T01:37:14;12.20;99.90
6260;DHT22;3163;51.516;4.000;2023-03-23T01:39:41;12.30;99.90
6260;DHT22;3163;51.516;4.000;2023-03-23T01:42:09;12.20;99.90
6260;DHT22;3163;51.516;4.000;2023-03-23T01:47:00;12.30;99.90
6260;DHT22;3163;51.516;4.000;2023-03-23T01:49:37;12.30;99.90
6260;DHT22;3163;51.516;4.000;2023-03-23T01:52:08;12.30;99.90
6260;DHT22;3163;51.516;4.000;2023-03-23T01:54:36;12.20;99.90
6260;DHT22;3163;51.516;4.000;2023-03-23T01:57:11;12.30;99.90
6260;DHT22;3163;51.516;4.000;2023-03-23T01:59:39;12.30;99.90
6260;DHT22;3163;51.516;4.000;2023-03-23T02:02:08;12.20;99.90
6260;DHT22;3163;51.516;4.000;2023-03-23T02:04:36;12.30;99.90
6260;DHT22;3163;51.516;4.000;2023-03-23T02:07:03;12.40;99.90
6260;DHT22;3163;51.516;4.000;2023-03-23T02:09:29;12.30;99.90
6260;DHT22;3163;51.516;4.000;2023-03-23T02:11:55;12.30;99.90
6260;DHT22;3163;51.516;4.000;2023-03-23T02:14:23;12.30;99.90
6260;DHT22;3163;51.516;4.000;2023-03-23T02:22:10;12.20;99.90
6260;DHT22;3163;51.516;4.000;2023-03-23T02:27:12;12.20;99.90
6260;DHT22;3163;51.516;4.000;2023-03-23T02:34:55;12.20;99.90
6260;DHT22;3163;51.516;4.000;2023-03-23T02:37:24;12.20;99.90
6260;DHT22;3163;51.516;4.000;2023-03-23T02:40:32;12.20;99.90
6260;DHT22;3163;51.516;4.000;2023-03-23T02:42:53;12.30;99.90
6260;DHT22;3163;51.516;4.000;2023-03-23T02:45:21;12.30;99.90
6260;DHT22;3163;51.516;4.000;2023-03-23T02:47:50;12.30;99.90
6260;DHT22;3163;51.516;4.000;2023-03-23T02:50:17;12.40;99.90
6260;DHT22;3163;51.516;4.000;2023-03-23T02:52:45;12.40;99.90
6260;DHT22;3163;51.516;4.000;2023-03-23T02:55:12;12.30;99.90
6260;DHT22;3163;51.516;4.000;2023-03-23T02:57:39;12.30;99.90
6260;DHT22;3163;51.516;4.000;2023-03-23T03:00:07;12.30;99.90
6260;DHT22;3163;51.516;4.000;2023-03-23T03:02:45;12.30;99.90
6260;DHT22;3163;51.516;4.000;2023-03-23T03:08:13;12.30;99.90
6260;DHT22;3163;51.516;4.000;2023-03-23T03:21:40;12.30;99.90
6260;DHT22;3163;51.516;4.000;2023-03-23T03:24:08;12.30;99.90
6260;DHT22;3163;51.516;4.000;2023-03-23T03:26:40;12.30;99.90
6260;DHT22;3163;51.516;4.000;2023-03-23T03:29:11;12.30;99.90
6260;DHT22;3163;51.516;4.000;2023-03-23T03:31:39;12.30;99.90
6260;DHT22;3163;51.516;4.000;2023-03-23T03:34:06;12.30;99.90
6260;DHT22;3163;51.516;4.000;2023-03-23T03:36:34;12.40;99.90
6260;DHT22;3163;51.516;4.000;2023-03-23T03:39:05;12.40;99.90
6260;DHT22;3163;51.516;4.000;2023-03-23T03:41:33;12.30;99.90
6260;DHT22;3163;51.516;4.000;2023-03-23T03:43:59;12.30;99.90
6260;DHT22;3163;51.516;4.000;2023-03-23T03:46:24;12.30;99.90
6260;DHT22;3163;51.516;4.000;2023-03-23T03:48:52;12.30;99.90
6260;DHT22;3163;51.516;4.000;2023-03-23T03:51:18;12.30;99.90
6260;DHT22;3163;51.516;4.000;2023-03-23T03:53:44;12.30;99.90
6260;DHT22;3163;51.516;4.000;2023-03-23T03:56:09;12.30;99.90
6260;DHT22;3163;51.516;4.000;2023-03-23T03:58:36;12.30;99.90
6260;DHT22;3163;51.516;4.000;2023-03-23T04:01:03;12.20;99.90
6260;DHT22;3163;51.516;4.000;2023-03-23T04:03:28;12.30;99.90
6260;DHT22;3163;51.516;4.000;2023-03-23T04:05:55;12.30;99.90
6260;DHT22;3163;51.516;4.000;2023-03-23T04:08:23;12.20;99.90
6260;DHT22;3163;51.516;4.000;2023-03-23T04:10:50;12.30;99.90
6260;DHT22;3163;51.516;4.000;2023-03-23T04:13:16;12.30;99.90
6260;DHT22;3163;51.516;4.000;2023-03-23T04:15:43;12.20;99.90
6260;DHT22;3163;51.516;4.000;2023-03-23T04:18:08;12.30;99.90
6260;DHT22;3163;51.516;4.000;2023-03-23T04:20:34;12.30;99.90
6260;DHT22;3163;51.516;4.000;2023-03-23T04:23:00;12.40;99.90
6260;DHT22;3163;51.516;4.000;2023-03-23T04:25:27;12.30;99.90
6260;DHT22;3163;51.516;4.000;2023-03-23T04:27:53;12.30;99.90
6260;DHT22;3163;51.516;4.000;2023-03-23T04:30:23;12.20;99.90
6260;DHT22;3163;51.516;4.000;2023-03-23T04:32:51;12.30;99.90
6260;DHT22;3163;51.516;4.000;2023-03-23T04:35:19;12.30;99.90
6260;DHT22;3163;51.516;4.000;2023-03-23T04:37:45;12.30;99.90
6260;DHT22;3163;51.516;4.000;2023-03-23T04:40:12;12.20;99.90
6260;DHT22;3163;51.516;4.000;2023-03-23T04:42:42;12.30;99.90
6260;DHT22;3163;51.516;4.000;2023-03-23T04:45:11;12.20;99.90
6260;DHT22;3163;51.516;4.000;2023-03-23T04:47:38;12.30;99.90
6260;DHT22;3163;51.516;4.000;2023-03-23T04:50:09;12.20;99.90
6260;DHT22;3163;51.516;4.000;2023-03-23T04:52:36;12.20;99.90
6260;DHT22;3163;51.516;4.000;2023-03-23T04:55:04;12.30;99.90
6260;DHT22;3163;51.516;4.000;2023-03-23T04:57:31;12.20;99.90
6260;DHT22;3163;51.516;4.000;2023-03-23T04:59:57;12.20;99.90
6260;DHT22;3163;51.516;4.000;2023-03-23T05:02:23;12.30;99.90
6260;DHT22;3163;51.516;4.000;2023-03-23T05:04:48;12.30;99.90
6260;DHT22;3163;51.516;4.000;2023-03-23T05:07:14;12.30;99.90
6260;DHT22;3163;51.516;4.000;2023-03-23T05:09:40;12.30;99.90
6260;DHT22;3163;51.516;4.000;2023-03-23T05:12:08;12.30;99.90
6260;DHT22;3163;51.516;4.000;2023-03-23T05:14:34;12.30;99.90
6260;DHT22;3163;51.516;4.000;2023-03-23T05:17:00;12.20;99.90
6260;DHT22;3163;51.516;4.000;2023-03-23T05:19:27;12.20;99.90
6260;DHT22;3163;51.516;4.000;2023-03-23T05:21:54;12.20;99.90
6260;DHT22;3163;51.516;4.000;2023-03-23T05:24:19;12.20;99.90
6260;DHT22;3163;51.516;4.000;2023-03-23T05:26:45;12.20;99.90
6260;DHT22;3163;51.516;4.000;2023-03-23T05:29:14;12.20;99.90
6260;DHT22;3163;51.516;4.000;2023-03-23T05:31:39;12.20;99.90
6260;DHT22;3163;51.516;4.000;2023-03-23T05:34:05;12.20;99.90
6260;DHT22;3163;51.516;4.000;2023-03-23T05:36:31;12.20;99.90
6260;DHT22;3163;51.516;4.000;2023-03-23T05:38:56;12.20;99.90
6260;DHT22;3163;51.516;4.000;2023-03-23T05:41:25;12.20;99.90
6260;DHT22;3163;51.516;4.000;2023-03-23T05:43:51;12.20;99.90
6260;DHT22;3163;51.516;4.000;2023-03-23T05:46:16;12.20;99.90
6260;DHT22;3163;51.516;4.000;2023-03-23T05:48:43;12.20;99.90
6260;DHT22;3163;51.516;4.000;2023-03-23T05:51:09;12.30;99.90
6260;DHT22;3163;51.516;4.000;2023-03-23T05:53:35;12.30;99.90
6260;DHT22;3163;51.516;4.000;2023-03-23T05:56:02;12.30;99.90
6260;DHT22;3163;51.516;4.000;2023-03-23T05:58:29;12.30;99.90
6260;DHT22;3163;51.516;4.000;2023-03-23T06:00:54;12.30;99.90
6260;DHT22;3163;51.516;4.000;2023-03-23T06:03:21;12.20;99.90
6260;DHT22;3163;51.516;4.000;2023-03-23T06:05:47;12.20;99.90
6260;DHT22;3163;51.516;4.000;2023-03-23T06:08:14;12.20;99.90
6260;DHT22;3163;51.516;4.000;2023-03-23T06:10:39;12.20;99.90
6260;DHT22;3163;51.516;4.000;2023-03-23T06:13:05;12.20;99.90
6260;DHT22;3163;51.516;4.000;2023-03-23T06:15:31;12.20;99.90
6260;DHT22;3163;51.516;4.000;2023-03-23T06:17:59;12.30;99.90
6260;DHT22;3163;51.516;4.000;2023-03-23T06:20:24;12.30;99.90
6260;DHT22;3163;51.516;4.000;2023-03-23T06:22:50;12.40;99.90
6260;DHT22;3163;51.516;4.000;2023-03-23T06:25:17;12.30;99.90
6260;DHT22;3163;51.516;4.000;2023-03-23T06:27:44;12.40;99.90
6260;DHT22;3163;51.516;4.000;2023-03-23T06:30:11;12.50;99.90
6260;DHT22;3163;51.516;4.000;2023-03-23T06:32:37;12.50;99.90
6260;DHT22;3163;51.516;4.000;2023-03-23T06:35:04;12.50;99.90
6260;DHT22;3163;51.516;4.000;2023-03-23T06:37:30;12.60;99.90
6260;DHT22;3163;51.516;4.000;2023-03-23T06:39:56;12.70;99.90
6260;DHT22;3163;51.516;4.000;2023-03-23T06:42:22;12.70;99.90
6260;DHT22;3163;51.516;4.000;2023-03-23T06:44:50;12.70;99.90
6260;DHT22;3163;51.516;4.000;2023-03-23T06:47:16;12.70;99.90
6260;DHT22;3163;51.516;4.000;2023-03-23T06:49:41;12.80;99.90
6260;DHT22;3163;51.516;4.000;2023-03-23T06:52:07;12.80;99.90
6260;DHT22;3163;51.516;4.000;2023-03-23T06:54:33;12.80;99.90
6260;DHT22;3163;51.516;4.000;2023-03-23T06:56:59;12.80;99.90
6260;DHT22;3163;51.516;4.000;2023-03-23T06:59:25;12.80;99.90
6260;DHT22;3163;51.516;4.000;2023-03-23T07:01:51;12.90;99.90
6260;DHT22;3163;51.516;4.000;2023-03-23T07:04:17;12.90;99.90
6260;DHT22;3163;51.516;4.000;2023-03-23T07:06:42;12.80;99.90
6260;DHT22;3163;51.516;4.000;2023-03-23T07:09:08;12.80;99.90
6260;DHT22;3163;51.516;4.000;2023-03-23T07:11:34;12.90;99.90
6260;DHT22;3163;51.516;4.000;2023-03-23T07:14:00;13.00;99.90
6260;DHT22;3163;51.516;4.000;2023-03-23T07:16:25;13.00;99.90
6260;DHT22;3163;51.516;4.000;2023-03-23T07:18:51;13.00;99.90
6260;DHT22;3163;51.516;4.000;2023-03-23T07:21:17;13.00;99.90
6260;DHT22;3163;51.516;4.000;2023-03-23T07:23:42;13.00;99.90
6260;DHT22;3163;51.516;4.000;2023-03-23T07:26:08;13.00;99.90
6260;DHT22;3163;51.516;4.000;2023-03-23T07:28:34;13.00;99.90
6260;DHT22;3163;51.516;4.000;2023-03-23T07:30:59;13.00;99.90
6260;DHT22;3163;51.516;4.000;2023-03-23T07:33:26;13.10;99.90
6260;DHT22;3163;51.516;4.000;2023-03-23T07:35:52;13.10;99.90
6260;DHT22;3163;51.516;4.000;2023-03-23T07:38:17;13.10;99.90
6260;DHT22;3163;51.516;4.000;2023-03-23T07:40:43;13.20;99.90
6260;DHT22;3163;51.516;4.000;2023-03-23T07:43:10;13.20;99.90
6260;DHT22;3163;51.516;4.000;2023-03-23T07:45:36;13.20;99.90
6260;DHT22;3163;51.516;4.000;2023-03-23T07:48:02;13.20;99.90
6260;DHT22;3163;51.516;4.000;2023-03-23T07:50:28;13.30;99.90
6260;DHT22;3163;51.516;4.000;2023-03-23T07:52:56;13.10;99.90
6260;DHT22;3163;51.516;4.000;2023-03-23T07:55:22;13.30;99.90
6260;DHT22;3163;51.516;4.000;2023-03-23T07:57:50;13.30;99.90
6260;DHT22;3163;51.516;4.000;2023-03-23T08:00:19;13.20;99.90
6260;DHT22;3163;51.516;4.000;2023-03-23T08:02:51;13.30;99.90
6260;DHT22;3163;51.516;4.000;2023-03-23T08:05:18;13.40;99.90
6260;DHT22;3163;51.516;4.000;2023-03-23T08:07:44;13.50;99.90
6260;DHT22;3163;51.516;4.000;2023-03-23T08:10:11;13.50;99.90
6260;DHT22;3163;51.516;4.000;2023-03-23T08:12:39;13.50;99.90
6260;DHT22;3163;51.516;4.000;2023-03-23T08:15:08;13.50;99.90
6260;DHT22;3163;51.516;4.000;2023-03-23T08:17:34;13.70;99.90
6260;DHT22;3163;51.516;4.000;2023-03-23T08:20:01;13.80;99.90
6260;DHT22;3163;51.516;4.000;2023-03-23T08:22:33;14.00;99.90
6260;DHT22;3163;51.516;4.000;2023-03-23T08:24:59;14.00;99.90
6260;DHT22;3163;51.516;4.000;2023-03-23T08:27:26;14.00;99.90
6260;DHT22;3163;51.516;4.000;2023-03-23T08:29:51;14.00;99.90
6260;DHT22;3163;51.516;4.000;2023-03-23T08:32:17;14.10;99.90
6260;DHT22;3163;51.516;4.000;2023-03-23T08:34:43;14.10;99.90
6260;DHT22;3163;51.516;4.000;2023-03-23T08:37:09;14.00;99.90
6260;DHT22;3163;51.516;4.000;2023-03-23T08:39:35;14.00;99.90
6260;DHT22;3163;51.516;4.000;2023-03-23T08:42:00;14.10;99.90
6260;DHT22;3163;51.516;4.000;2023-03-23T08:44:26;14.30;99.90
6260;DHT22;3163;51.516;4.000;2023-03-23T08:46:52;14.30;99.90
6260;DHT22;3163;51.516;4.000;2023-03-23T08:49:23;14.40;99.90
6260;DHT22;3163;51.516;4.000;2023-03-23T08:51:48;14.50;99.90
6260;DHT22;3163;51.516;4.000;2023-03-23T08:54:14;14.30;99.90
6260;DHT22;3163;51.516;4.000;2023-03-23T08:56:40;14.40;99.90
6260;DHT22;3163;51.516;4.000;2023-03-23T08:59:06;14.50;99.90
6260;DHT22;3163;51.516;4.000;2023-03-23T09:01:32;14.30;99.90
6260;DHT22;3163;51.516;4.000;2023-03-23T09:03:58;14.50;99.90
6260;DHT22;3163;51.516;4.000;2023-03-23T09:06:25;14.70;99.90
6260;DHT22;3163;51.516;4.000;2023-03-23T09:08:51;14.80;99.90
6260;DHT22;3163;51.516;4.000;2023-03-23T09:11:17;14.80;99.90
6260;DHT22;3163;51.516;4.000;2023-03-23T09:13:42;15.00;99.90
6260;DHT22;3163;51.516;4.000;2023-03-23T09:16:08;14.90;99.90
6260;DHT22;3163;51.516;4.000;2023-03-23T09:18:35;14.90;99.90
6260;DHT22;3163;51.516;4.000;2023-03-23T09:21:01;14.80;99.90
6260;DHT22;3163;51.516;4.000;2023-03-23T09:23:28;15.00;99.90
6260;DHT22;3163;51.516;4.000;2023-03-23T09:25:54;14.80;99.90
6260;DHT22;3163;51.516;4.000;2023-03-23T09:28:20;15.00;99.90
6260;DHT22;3163;51.516;4.000;2023-03-23T09:30:46;15.20;99.90
6260;DHT22;3163;51.516;4.000;2023-03-23T09:33:13;15.50;99.90
6260;DHT22;3163;51.516;4.000;2023-03-23T09:35:40;15.50;99.90
6260;DHT22;3163;51.516;4.000;2023-03-23T09:38:08;15.60;99.90
6260;DHT22;3163;51.516;4.000;2023-03-23T09:41:14;15.70;99.90
6260;DHT22;3163;51.516;4.000;2023-03-23T09:46:42;15.60;99.90
6260;DHT22;3163;51.516;4.000;2023-03-23T09:52:11;15.30;99.90
6260;DHT22;3163;51.516;4.000;2023-03-23T09:54:50;15.30;99.90
6260;DHT22;3163;51.516;4.000;2023-03-23T09:57:37;15.30;99.90
6260;DHT22;3163;51.516;4.000;2023-03-23T10:02:38;15.40;99.90
6260;DHT22;3163;51.516;4.000;2023-03-23T10:05:34;15.30;99.90
6260;DHT22;3163;51.516;4.000;2023-03-23T10:08:05;15.60;99.90
6260;DHT22;3163;51.516;4.000;2023-03-23T10:15:55;15.90;99.90
6260;DHT22;3163;51.516;4.000;2023-03-23T10:18:37;15.80;99.90
6260;DHT22;3163;51.516;4.000;2023-03-23T10:21:04;15.70;99.90
6260;DHT22;3163;51.516;4.000;2023-03-23T10:23:59;15.70;99.90
6260;DHT22;3163;51.516;4.000;2023-03-23T10:26:31;15.40;99.90
6260;DHT22;3163;51.516;4.000;2023-03-23T10:29:17;15.40;99.90
6260;DHT22;3163;51.516;4.000;2023-03-23T10:32:01;15.20;99.90
6260;DHT22;3163;51.516;4.000;2023-03-23T10:34:33;15.30;99.90
6260;DHT22;3163;51.516;4.000;2023-03-23T10:37:27;15.20;99.90
6260;DHT22;3163;51.516;4.000;2023-03-23T10:39:57;15.10;99.90
6260;DHT22;3163;51.516;4.000;2023-03-23T10:42:26;14.80;99.90
6260;DHT22;3163;51.516;4.000;2023-03-23T10:44:53;15.00;99.90
6260;DHT22;3163;51.516;4.000;2023-03-23T10:47:20;15.00;99.90
6260;DHT22;3163;51.516;4.000;2023-03-23T10:49:56;15.00;99.90
6260;DHT22;3163;51.516;4.000;2023-03-23T10:54:56;15.00;99.90
6260;DHT22;3163;51.516;4.000;2023-03-23T10:57:30;15.00;99.90
6260;DHT22;3163;51.516;4.000;2023-03-23T11:00:25;14.90;99.90
6260;DHT22;3163;51.516;4.000;2023-03-23T11:03:22;14.90;99.90
6260;DHT22;3163;51.516;4.000;2023-03-23T11:06:05;15.10;99.90
6260;DHT22;3163;51.516;4.000;2023-03-23T11:08:35;15.20;99.90
6260;DHT22;3163;51.516;4.000;2023-03-23T11:11:10;15.20;99.90
6260;DHT22;3163;51.516;4.000;2023-03-23T11:13:42;15.40;99.90
6260;DHT22;3163;51.516;4.000;2023-03-23T11:16:09;15.60;99.90
6260;DHT22;3163;51.516;4.000;2023-03-23T11:18:41;15.70;99.90
6260;DHT22;3163;51.516;4.000;2023-03-23T11:21:12;16.10;99.90
6260;DHT22;3163;51.516;4.000;2023-03-23T11:23:43;16.10;99.90
6260;DHT22;3163;51.516;4.000;2023-03-23T11:26:30;16.10;99.90
6260;DHT22;3163;51.516;4.000;2023-03-23T11:29:13;16.00;99.90
6260;DHT22;3163;51.516;4.000;2023-03-23T11:31:46;16.20;99.90
6260;DHT22;3163;51.516;4.000;2023-03-23T11:34:19;16.00;99.90
6260;DHT22;3163;51.516;4.000;2023-03-23T11:37:33;16.40;99.90
6260;DHT22;3163;51.516;4.000;2023-03-23T11:42:21;16.60;99.90
6260;DHT22;3163;51.516;4.000;2023-03-23T11:44:47;16.40;99.90
6260;DHT22;3163;51.516;4.000;2023-03-23T11:47:30;16.20;99.90
6260;DHT22;3163;51.516;4.000;2023-03-23T11:50:04;16.40;99.90
6260;DHT22;3163;51.516;4.000;2023-03-23T11:55:22;16.70;99.90
6260;DHT22;3163;51.516;4.000;2023-03-23T11:57:48;16.90;99.90
6260;DHT22;3163;51.516;4.000;2023-03-23T12:00:20;17.00;99.90
6260;DHT22;3163;51.516;4.000;2023-03-23T12:02:56;16.80;99.90
6260;DHT22;3163;51.516;4.000;2023-03-23T12:16:18;16.70;99.90
6260;DHT22;3163;51.516;4.000;2023-03-23T12:24:24;16.40;99.90
6260;DHT22;3163;51.516;4.000;2023-03-23T12:29:48;16.30;99.90
6260;DHT22;3163;51.516;4.000;2023-03-23T12:32:31;16.40;99.90
6260;DHT22;3163;51.516;4.000;2023-03-23T12:46:30;16.10;99.90
6260;DHT22;3163;51.516;4.000;2023-03-23T12:51:41;16.10;99.90
6260;DHT22;3163;51.516;4.000;2023-03-23T12:57:10;16.60;99.90
6260;DHT22;3163;51.516;4.000;2023-03-23T12:59:53;17.00;99.90
6260;DHT22;3163;51.516;4.000;2023-03-23T13:02:29;17.10;99.90
6260;DHT22;3163;51.516;4.000;2023-03-23T13:07:57;17.20;99.90
6260;DHT22;3163;51.516;4.000;2023-03-23T13:10:29;17.30;99.90
6260;DHT22;3163;51.516;4.000;2023-03-23T13:12:56;17.10;99.90
6260;DHT22;3163;51.516;4.000;2023-03-23T13:15:41;17.10;99.90
6260;DHT22;3163;51.516;4.000;2023-03-23T13:18:12;17.00;99.90
6260;DHT22;3163;51.516;4.000;2023-03-23T13:23:42;17.10;99.90
6260;DHT22;3163;51.516;4.000;2023-03-23T13:26:12;17.20;99.90
6260;DHT22;3163;51.516;4.000;2023-03-23T13:31:33;16.80;99.90
6260;DHT22;3163;51.516;4.000;2023-03-23T13:34:06;17.20;99.90
6260;DHT22;3163;51.516;4.000;2023-03-23T13:36:36;17.50;99.90
6260;DHT22;3163;51.516;4.000;2023-03-23T13:39:05;17.60;99.90
6260;DHT22;3163;51.516;4.000;2023-03-23T13:41:33;17.70;99.90
6260;DHT22;3163;51.516;4.000;2023-03-23T13:44:18;17.80;99.90
6260;DHT22;3163;51.516;4.000;2023-03-23T13:46:55;17.70;99.90
6260;DHT22;3163;51.516;4.000;2023-03-23T13:49:22;17.90;99.90
6260;DHT22;3163;51.516;4.000;2023-03-23T13:54:23;17.90;99.90
6260;DHT22;3163;51.516;4.000;2023-03-23T14:01:54;18.10;99.90
6260;DHT22;3163;51.516;4.000;2023-03-23T14:04:22;18.10;99.90
6260;DHT22;3163;51.516;4.000;2023-03-23T14:06:49;18.20;99.90
6260;DHT22;3163;51.516;4.000;2023-03-23T14:09:25;18.20;99.90
6260;DHT22;3163;51.516;4.000;2023-03-23T14:12:02;17.60;99.90
6260;DHT22;3163;51.516;4.000;2023-03-23T14:14:40;17.80;99.90
6260;DHT22;3163;51.516;4.000;2023-03-23T14:17:14;17.80;99.90
6260;DHT22;3163;51.516;4.000;2023-03-23T14:19:42;17.90;99.90
6260;DHT22;3163;51.516;4.000;2023-03-23T14:22:27;18.10;99.90
6260;DHT22;3163;51.516;4.000;2023-03-23T14:25:14;18.10;99.90
6260;DHT22;3163;51.516;4.000;2023-03-23T14:27:40;18.10;99.90
6260;DHT22;3163;51.516;4.000;2023-03-23T14:30:20;18.00;99.90
6260;DHT22;3163;51.516;4.000;2023-03-23T14:32:47;18.10;99.90
6260;DHT22;3163;51.516;4.000;2023-03-23T14:35:28;18.10;99.90
6260;DHT22;3163;51.516;4.000;2023-03-23T14:37:55;18.10;99.90
6260;DHT22;3163;51.516;4.000;2023-03-23T14:40:22;17.90;99.90
6260;DHT22;3163;51.516;4.000;2023-03-23T14:42:50;18.10;99.90
6260;DHT22;3163;51.516;4.000;2023-03-23T14:45:18;18.10;99.90
6260;DHT22;3163;51.516;4.000;2023-03-23T14:47:47;18.20;99.90
6260;DHT22;3163;51.516;4.000;2023-03-23T14:53:38;18.10;99.90
6260;DHT22;3163;51.516;4.000;2023-03-23T14:56:13;17.60;99.90
6260;DHT22;3163;51.516;4.000;2023-03-23T14:58:47;17.80;99.90
6260;DHT22;3163;51.516;4.000;2023-03-23T15:01:26;18.00;99.90
6260;DHT22;3163;51.516;4.000;2023-03-23T15:04:12;18.20;99.90
6260;DHT22;3163;51.516;4.000;2023-03-23T15:06:43;18.10;99.90
6260;DHT22;3163;51.516;4.000;2023-03-23T15:09:20;18.10;99.90
6260;DHT22;3163;51.516;4.000;2023-03-23T15:12:22;18.10;99.90
6260;DHT22;3163;51.516;4.000;2023-03-23T15:14:52;18.00;99.90
6260;DHT22;3163;51.516;4.000;2023-03-23T15:17:21;17.90;99.90
6260;DHT22;3163;51.516;4.000;2023-03-23T15:19:48;17.90;99.90
6260;DHT22;3163;51.516;4.000;2023-03-23T15:24:46;17.90;99.90
6260;DHT22;3163;51.516;4.000;2023-03-23T15:27:24;18.00;99.90
6260;DHT22;3163;51.516;4.000;2023-03-23T15:32:27;17.90;99.90
6260;DHT22;3163;51.516;4.000;2023-03-23T15:34:54;17.80;99.90
6260;DHT22;3163;51.516;4.000;2023-03-23T15:37:30;17.40;99.90
6260;DHT22;3163;51.516;4.000;2023-03-23T15:39:58;17.40;99.90
6260;DHT22;3163;51.516;4.000;2023-03-23T15:42:33;17.70;99.90
6260;DHT22;3163;51.516;4.000;2023-03-23T15:47:36;17.70;99.90
6260;DHT22;3163;51.516;4.000;2023-03-23T15:50:18;17.70;99.90
6260;DHT22;3163;51.516;4.000;2023-03-23T15:52:45;17.60;99.90
6260;DHT22;3163;51.516;4.000;2023-03-23T15:55:40;17.50;99.90
6260;DHT22;3163;51.516;4.000;2023-03-23T15:58:11;17.40;99.90
6260;DHT22;3163;51.516;4.000;2023-03-23T16:00:38;17.30;99.90
6260;DHT22;3163;51.516;4.000;2023-03-23T16:03:06;17.20;99.90
6260;DHT22;3163;51.516;4.000;2023-03-23T16:05:33;17.30;99.90
6260;DHT22;3163;51.516;4.000;2023-03-23T16:07:59;17.20;99.90
6260;DHT22;3163;51.516;4.000;2023-03-23T16:10:26;17.20;99.90
6260;DHT22;3163;51.516;4.000;2023-03-23T16:12:52;17.00;99.90
6260;DHT22;3163;51.516;4.000;2023-03-23T16:15:18;17.10;99.90
6260;DHT22;3163;51.516;4.000;2023-03-23T16:17:44;16.80;99.90
6260;DHT22;3163;51.516;4.000;2023-03-23T16:20:18;16.70;99.90
6260;DHT22;3163;51.516;4.000;2023-03-23T16:22:44;16.70;99.90
6260;DHT22;3163;51.516;4.000;2023-03-23T16:25:10;16.80;99.90
6260;DHT22;3163;51.516;4.000;2023-03-23T16:27:37;16.80;99.90
6260;DHT22;3163;51.516;4.000;2023-03-23T16:30:17;16.80;99.90
6260;DHT22;3163;51.516;4.000;2023-03-23T16:32:43;16.80;99.90
6260;DHT22;3163;51.516;4.000;2023-03-23T16:35:09;16.80;99.90
6260;DHT22;3163;51.516;4.000;2023-03-23T16:37:35;16.80;99.90
6260;DHT22;3163;51.516;4.000;2023-03-23T16:40:02;16.80;99.90
6260;DHT22;3163;51.516;4.000;2023-03-23T16:42:28;16.80;99.90
6260;DHT22;3163;51.516;4.000;2023-03-23T16:44:54;16.80;99.90
6260;DHT22;3163;51.516;4.000;2023-03-23T16:47:20;16.80;99.90
6260;DHT22;3163;51.516;4.000;2023-03-23T16:49:50;16.80;99.90
6260;DHT22;3163;51.516;4.000;2023-03-23T16:52:17;16.70;99.90
6260;DHT22;3163;51.516;4.000;2023-03-23T16:54:42;16.60;99.90
6260;DHT22;3163;51.516;4.000;2023-03-23T16:57:09;16.70;99.90
6260;DHT22;3163;51.516;4.000;2023-03-23T16:59:34;16.60;99.90
6260;DHT22;3163;51.516;4.000;2023-03-23T17:02:00;16.50;99.90
6260;DHT22;3163;51.516;4.000;2023-03-23T17:04:32;16.30;99.90
6260;DHT22;3163;51.516;4.000;2023-03-23T17:06:58;16.40;99.90
6260;DHT22;3163;51.516;4.000;2023-03-23T17:09:25;16.40;99.90
6260;DHT22;3163;51.516;4.000;2023-03-23T17:11:51;16.30;99.90
6260;DHT22;3163;51.516;4.000;2023-03-23T17:14:17;16.30;99.90
6260;DHT22;3163;51.516;4.000;2023-03-23T17:16:43;16.40;99.90
6260;DHT22;3163;51.516;4.000;2023-03-23T17:19:09;16.40;99.90
6260;DHT22;3163;51.516;4.000;2023-03-23T17:21:34;16.40;99.90
6260;DHT22;3163;51.516;4.000;2023-03-23T17:24:00;16.40;99.90
6260;DHT22;3163;51.516;4.000;2023-03-23T17:26:26;16.40;99.90
6260;DHT22;3163;51.516;4.000;2023-03-23T17:28:52;16.30;99.90
6260;DHT22;3163;51.516;4.000;2023-03-23T17:31:17;16.30;99.90
6260;DHT22;3163;51.516;4.000;2023-03-23T17:33:43;16.30;99.90
6260;DHT22;3163;51.516;4.000;2023-03-23T17:36:09;16.20;99.90
6260;DHT22;3163;51.516;4.000;2023-03-23T17:38:34;16.20;99.90
6260;DHT22;3163;51.516;4.000;2023-03-23T17:41:01;16.10;99.90
6260;DHT22;3163;51.516;4.000;2023-03-23T17:43:28;16.10;99.90
6260;DHT22;3163;51.516;4.000;2023-03-23T17:45:54;16.10;99.90
6260;DHT22;3163;51.516;4.000;2023-03-23T17:48:20;16.20;99.90
6260;DHT22;3163;51.516;4.000;2023-03-23T17:50:47;16.20;99.90
6260;DHT22;3163;51.516;4.000;2023-03-23T17:53:13;16.10;99.90
6260;DHT22;3163;51.516;4.000;2023-03-23T17:55:38;16.20;99.90
6260;DHT22;3163;51.516;4.000;2023-03-23T17:58:07;16.20;99.90
6260;DHT22;3163;51.516;4.000;2023-03-23T18:00:33;16.10;99.90
6260;DHT22;3163;51.516;4.000;2023-03-23T18:02:59;16.10;99.90
6260;DHT22;3163;51.516;4.000;2023-03-23T18:05:25;15.90;99.90
6260;DHT22;3163;51.516;4.000;2023-03-23T18:07:52;16.00;99.90
6260;DHT22;3163;51.516;4.000;2023-03-23T18:10:18;16.10;99.90